Decoded Metar for KLFI (HAMPTON in VA, USA) (IATA:LFI) | Meteo·Mobile Aviation Weather
aviador You're here:

KLFI Decoded Metar

HAMPTON in VA, USA
Report Time2018-08-22 03:56:00
UTC Time2018-08-22 04:29:57
Flight Rules vfr VFR
Wind220° at 13 kt
W.Decomp.*RWY 26: 11.3 kt HW 6.5 kt LCW
W.Rank220° ranks 2
Current wind is above 220° avg. (9.0)
Visibility9999 m
Phenomena:N/A
Clouds:Few 190 Hf
Expected CloudBase > 800 ft AGL from Temp-Dew spread
CeilingNone
Temp26°C (ISA +11)
Dew Point24°C (89% RH)
QNH1013 hPa
Density Alt1,673 ft
Elevation10 ft
Report Wrong Elevation
Raw Report
KLFI 220356Z AUTO 22013KT 10SM FEW190 26/24 A2990 RMK AO2 SLP132
T02570244=

Extra information for KLFI:More info

Metar Taf Metar & Taf Last 4 Metars F.Rules Stats Wind Profile Meteogram Temp Stats Airport Information Weather charts Add Link Nearby VenuesMetar ALERT Operation Metar Decoded Social comments

AIRNAV info for KLFI